createdAt,value
2023-01-18T00:01:14.331Z,12.60
2023-01-18T00:03:42.128Z,12.70
2023-01-18T00:06:10.591Z,13.00
2023-01-18T00:08:38.704Z,11.40
2023-01-18T00:11:07.864Z,12.77
2023-01-18T00:13:34.887Z,12.17
2023-01-18T00:16:11.174Z,12.60
2023-01-18T00:18:37.915Z,12.77
2023-01-18T00:21:07.097Z,13.53
2023-01-18T00:23:34.373Z,12.77
2023-01-18T00:26:02.136Z,13.00
2023-01-18T00:28:28.741Z,13.17
2023-01-18T00:30:55.834Z,12.53
2023-01-18T00:33:28.960Z,13.53
2023-01-18T00:36:00.650Z,13.87
2023-01-18T00:38:28.139Z,13.40
2023-01-18T00:40:57.941Z,14.17
2023-01-18T00:43:39.609Z,12.60
2023-01-18T00:46:11.088Z,12.60
2023-01-18T00:48:41.531Z,13.97
2023-01-18T00:51:10.384Z,12.97
2023-01-18T00:53:40.279Z,14.40
2023-01-18T00:56:09.078Z,13.13
2023-01-18T00:58:37.377Z,12.87
2023-01-18T01:01:08.082Z,12.67
2023-01-18T01:03:54.768Z,12.90
2023-01-18T01:06:44.276Z,13.97
2023-01-18T01:09:24.812Z,13.60
2023-01-18T01:12:11.129Z,13.83
2023-01-18T01:14:59.892Z,13.27
2023-01-18T01:17:47.641Z,13.77
2023-01-18T01:20:33.125Z,12.90
2023-01-18T01:23:29.949Z,14.23
2023-01-18T01:26:08.679Z,14.07
2023-01-18T01:28:40.456Z,14.13
2023-01-18T01:31:09.851Z,14.70
2023-01-18T01:33:37.114Z,14.07
2023-01-18T01:36:10.120Z,14.00
2023-01-18T01:38:37.140Z,14.67
2023-01-18T01:41:13.449Z,13.90
2023-01-18T01:43:42.994Z,13.73
2023-01-18T01:46:20.903Z,14.63
2023-01-18T01:48:48.816Z,13.90
2023-01-18T01:51:18.447Z,13.47
2023-01-18T01:53:48.432Z,14.70
2023-01-18T01:56:15.684Z,15.17
2023-01-18T01:58:43.327Z,14.80
2023-01-18T02:01:10.115Z,14.33
2023-01-18T02:03:40.200Z,14.37
2023-01-18T02:06:16.319Z,14.47
2023-01-18T02:08:47.179Z,13.77
2023-01-18T02:11:13.773Z,13.50
2023-01-18T02:13:40.433Z,13.83
2023-01-18T02:16:34.038Z,12.87
2023-01-18T02:19:36.455Z,12.90
2023-01-18T02:22:44.488Z,13.53
2023-01-18T02:25:49.793Z,13.23
2023-01-18T02:28:21.138Z,12.90
2023-01-18T02:30:58.483Z,13.17
2023-01-18T02:33:33.055Z,13.50
2023-01-18T02:36:04.017Z,12.60
2023-01-18T02:38:45.917Z,12.80
2023-01-18T02:42:00.901Z,12.93
2023-01-18T02:44:51.244Z,12.23
2023-01-18T02:47:18.032Z,12.53
2023-01-18T02:49:44.647Z,13.10
2023-01-18T02:52:38.244Z,12.63
2023-01-18T02:55:06.962Z,12.57
2023-01-18T02:57:34.214Z,13.87
2023-01-18T03:00:03.528Z,14.00
2023-01-18T03:02:30.338Z,13.07
2023-01-18T03:04:57.112Z,13.50
2023-01-18T03:07:32.910Z,13.33
2023-01-18T03:10:02.455Z,13.57
2023-01-18T03:12:46.401Z,13.20
2023-01-18T03:15:27.853Z,13.90
2023-01-18T03:17:58.158Z,14.23
2023-01-18T03:20:30.306Z,12.87
2023-01-18T03:23:34.753Z,13.37
2023-01-18T03:26:04.352Z,13.80
2023-01-18T03:29:01.714Z,13.40
2023-01-18T03:32:15.253Z,13.80
2023-01-18T03:35:08.298Z,14.27
2023-01-18T03:37:41.041Z,13.10
2023-01-18T03:40:15.547Z,13.33
2023-01-18T03:42:50.224Z,12.50
2023-01-18T03:45:48.537Z,12.50
2023-01-18T03:48:15.753Z,12.03
2023-01-18T03:51:06.752Z,10.80
2023-01-18T03:53:55.481Z,9.87
2023-01-18T03:56:32.918Z,10.20
2023-01-18T03:59:04.469Z,10.47
2023-01-18T04:01:31.804Z,10.03
2023-01-18T04:03:58.470Z,10.13
2023-01-18T04:06:25.670Z,9.50
2023-01-18T04:08:52.729Z,9.73
2023-01-18T04:11:19.593Z,9.60
2023-01-18T04:13:46.276Z,10.47
2023-01-18T04:16:12.914Z,9.43
2023-01-18T04:18:39.568Z,9.67
2023-01-18T04:21:06.206Z,9.40
2023-01-18T04:23:32.988Z,9.03
2023-01-18T04:25:59.548Z,9.73
2023-01-18T04:28:26.184Z,9.97
2023-01-18T04:30:54.607Z,9.83
2023-01-18T04:33:22.614Z,9.63
2023-01-18T04:35:50.129Z,9.47
2023-01-18T04:38:16.773Z,9.60
2023-01-18T04:40:43.376Z,11.13
2023-01-18T04:43:10.100Z,10.97
2023-01-18T04:45:36.785Z,11.13
2023-01-18T04:48:03.848Z,11.97
2023-01-18T04:50:30.502Z,11.30
2023-01-18T04:52:58.397Z,12.20
2023-01-18T04:55:25.272Z,11.67
2023-01-18T04:57:59.261Z,12.13
2023-01-18T05:00:25.966Z,12.30
2023-01-18T05:02:52.592Z,12.83
2023-01-18T05:05:19.238Z,12.57
2023-01-18T05:07:46.014Z,12.90
2023-01-18T05:10:13.019Z,12.43
2023-01-18T05:12:39.667Z,12.83
2023-01-18T05:15:06.853Z,12.67
2023-01-18T05:17:35.127Z,12.63
2023-01-18T05:20:04.338Z,12.33
2023-01-18T05:22:32.913Z,12.60
2023-01-18T05:24:59.924Z,13.27
2023-01-18T05:27:26.581Z,13.07
2023-01-18T05:29:53.322Z,14.67
2023-01-18T05:32:20.092Z,12.87
2023-01-18T05:34:46.717Z,13.50
2023-01-18T05:37:13.374Z,12.90
2023-01-18T05:39:39.983Z,13.87
2023-01-18T05:42:06.817Z,13.40
2023-01-18T05:44:33.471Z,12.83
2023-01-18T05:47:00.221Z,13.10
2023-01-18T05:49:28.336Z,13.47
2023-01-18T05:51:54.916Z,13.50
2023-01-18T05:54:21.524Z,12.90
2023-01-18T05:56:48.128Z,13.33
2023-01-18T05:59:15.558Z,13.43
2023-01-18T06:01:42.795Z,14.00
2023-01-18T06:04:09.760Z,14.23
2023-01-18T06:06:36.349Z,13.97
2023-01-18T06:09:03.483Z,14.20
2023-01-18T06:11:30.396Z,13.77
2023-01-18T06:13:57.029Z,12.77
2023-01-18T06:16:24.536Z,14.30
2023-01-18T06:18:51.323Z,14.03
2023-01-18T06:21:18.764Z,13.80
2023-01-18T06:23:45.373Z,14.77
2023-01-18T06:26:12.003Z,15.70
2023-01-18T06:28:38.642Z,14.40
2023-01-18T06:31:08.118Z,13.90
2023-01-18T06:33:34.860Z,14.10
2023-01-18T06:36:01.675Z,14.77
2023-01-18T06:38:29.619Z,14.17
2023-01-18T06:40:56.236Z,14.73
2023-01-18T06:43:23.005Z,14.60
2023-01-18T06:45:56.358Z,14.93
2023-01-18T06:48:26.602Z,14.50
2023-01-18T06:50:56.749Z,14.57
2023-01-18T06:53:23.520Z,15.03
2023-01-18T06:56:01.675Z,13.83
2023-01-18T06:58:31.033Z,14.37
2023-01-18T07:00:59.387Z,14.93
2023-01-18T07:03:27.664Z,14.63
2023-01-18T07:05:58.729Z,15.47
2023-01-18T07:08:26.909Z,13.27
2023-01-18T07:10:54.169Z,13.97
2023-01-18T07:13:21.884Z,14.87
2023-01-18T07:15:57.987Z,14.37
2023-01-18T07:18:26.283Z,14.87
2023-01-18T07:21:01.076Z,14.33
2023-01-18T07:23:29.014Z,14.07
2023-01-18T07:26:06.603Z,14.47
2023-01-18T07:28:34.323Z,14.27
2023-01-18T07:31:01.473Z,14.33
2023-01-18T07:33:28.628Z,14.67
2023-01-18T07:35:57.115Z,14.47
2023-01-18T07:38:24.917Z,14.63
2023-01-18T07:40:57.446Z,14.77
2023-01-18T07:43:24.168Z,14.27
2023-01-18T07:45:54.399Z,14.23
2023-01-18T07:48:21.862Z,14.60
2023-01-18T07:50:55.424Z,14.60
2023-01-18T07:53:22.638Z,14.73
2023-01-18T07:55:49.779Z,14.60
2023-01-18T07:58:17.472Z,14.63
2023-01-18T08:00:45.023Z,15.27
2023-01-18T08:03:16.550Z,14.90
2023-01-18T08:05:44.418Z,14.33
2023-01-18T08:08:13.045Z,13.73
2023-01-18T08:10:40.336Z,15.00
2023-01-18T08:13:10.798Z,14.73
2023-01-18T08:15:40.620Z,14.13
2023-01-18T08:18:08.185Z,14.83
2023-01-18T08:20:34.849Z,14.60
2023-01-18T08:23:02.488Z,14.83
2023-01-18T08:25:31.528Z,15.33
2023-01-18T08:27:59.727Z,14.43
2023-01-18T08:30:31.558Z,14.53
2023-01-18T08:33:00.553Z,13.83
2023-01-18T08:35:29.972Z,13.97
2023-01-18T08:37:56.687Z,13.67
2023-01-18T08:40:23.695Z,13.93
2023-01-18T08:42:50.334Z,14.03
2023-01-18T08:45:17.754Z,13.53
2023-01-18T08:47:44.359Z,13.67
2023-01-18T08:50:13.825Z,13.50
2023-01-18T08:52:40.600Z,13.87
2023-01-18T08:55:07.847Z,12.70
2023-01-18T08:57:34.538Z,14.33
2023-01-18T09:00:04.224Z,13.63
2023-01-18T09:02:30.892Z,13.80
2023-01-18T09:04:58.153Z,14.57
2023-01-18T09:07:24.736Z,14.50
2023-01-18T09:09:51.369Z,13.87
2023-01-18T09:12:18.207Z,13.80
2023-01-18T09:14:44.921Z,14.03
2023-01-18T09:17:11.554Z,13.67
2023-01-18T09:19:38.135Z,14.30
2023-01-18T09:22:06.268Z,13.63
2023-01-18T09:24:33.184Z,13.53
2023-01-18T09:26:59.801Z,13.83
2023-01-18T09:29:26.374Z,13.70
2023-01-18T09:31:54.200Z,13.10
2023-01-18T09:34:21.674Z,13.67
2023-01-18T09:36:52.288Z,14.00
2023-01-18T09:39:20.187Z,13.80
2023-01-18T09:41:56.299Z,13.33
2023-01-18T09:44:35.921Z,14.03
2023-01-18T09:47:24.833Z,14.73
2023-01-18T09:49:57.351Z,13.80
2023-01-18T09:52:40.587Z,14.97
2023-01-18T09:55:33.133Z,13.53
2023-01-18T09:58:37.972Z,13.33
2023-01-18T10:01:19.518Z,12.70
2023-01-18T10:03:53.731Z,12.90
2023-01-18T10:06:30.222Z,14.97
2023-01-18T10:09:07.561Z,13.37
2023-01-18T10:11:47.338Z,13.07
2023-01-18T10:15:04.335Z,14.43
2023-01-18T10:17:38.297Z,12.47
2023-01-18T10:20:16.993Z,13.50
2023-01-18T10:22:49.913Z,13.83
2023-01-18T10:25:34.942Z,12.87
2023-01-18T10:28:11.532Z,12.73
2023-01-18T10:30:55.650Z,12.50
2023-01-18T10:33:25.697Z,13.67
2023-01-18T10:35:57.215Z,13.63
2023-01-18T10:38:28.331Z,12.60
2023-01-18T10:41:00.314Z,13.17
2023-01-18T10:43:29.306Z,13.10
2023-01-18T10:45:56.269Z,12.57
2023-01-18T10:48:32.612Z,13.10
2023-01-18T10:51:01.956Z,13.00
2023-01-18T10:53:35.085Z,12.43
2023-01-18T10:56:09.335Z,12.77
2023-01-18T10:58:50.320Z,13.47
2023-01-18T11:01:27.588Z,13.13
2023-01-18T11:04:05.653Z,12.43
2023-01-18T11:06:44.591Z,12.20
2023-01-18T11:09:39.432Z,12.40
2023-01-18T11:12:37.549Z,12.43
2023-01-18T11:15:13.334Z,12.27
2023-01-18T11:17:44.924Z,11.47
2023-01-18T11:20:25.561Z,12.50
2023-01-18T11:23:00.450Z,12.40
2023-01-18T11:25:39.611Z,11.97
2023-01-18T11:28:27.428Z,12.30
2023-01-18T11:31:07.422Z,12.83
2023-01-18T11:33:34.705Z,12.37
2023-01-18T11:36:02.797Z,12.83
2023-01-18T11:38:33.694Z,12.10
2023-01-18T11:41:15.252Z,12.40
2023-01-18T11:43:58.582Z,12.53
2023-01-18T11:46:40.664Z,12.43
2023-01-18T11:49:29.278Z,11.57
2023-01-18T11:52:09.061Z,12.53
2023-01-18T11:54:41.651Z,12.27
2023-01-18T11:57:12.356Z,13.07
2023-01-18T11:59:45.502Z,12.47
2023-01-18T12:02:24.171Z,11.80
2023-01-18T12:05:30.944Z,11.70
2023-01-18T12:08:15.625Z,12.40
2023-01-18T12:11:03.939Z,11.53
2023-01-18T12:13:50.215Z,11.93
2023-01-18T12:16:48.501Z,11.87
2023-01-18T12:19:41.694Z,11.67
2023-01-18T12:22:38.947Z,12.03
2023-01-18T12:25:39.549Z,12.70
2023-01-18T12:28:28.078Z,11.83
2023-01-18T12:31:06.736Z,12.03
2023-01-18T12:33:44.247Z,11.73
2023-01-18T12:36:55.347Z,12.53
2023-01-18T12:39:54.010Z,11.77
2023-01-18T12:42:40.279Z,11.30
2023-01-18T12:45:15.939Z,11.77
2023-01-18T12:47:51.784Z,11.60
2023-01-18T12:50:25.693Z,11.33
2023-01-18T12:52:57.579Z,12.17
2023-01-18T12:55:28.393Z,10.70
2023-01-18T12:58:01.297Z,11.43
2023-01-18T13:00:40.141Z,11.47
2023-01-18T13:03:13.454Z,10.93
2023-01-18T13:05:55.382Z,11.67
2023-01-18T13:08:36.456Z,10.00
2023-01-18T13:11:08.964Z,10.50
2023-01-18T13:13:36.414Z,11.53
2023-01-18T13:16:19.120Z,11.03
2023-01-18T13:18:59.410Z,8.33
2023-01-18T13:21:40.025Z,7.93
2023-01-18T13:24:27.884Z,9.83
2023-01-18T13:27:09.765Z,10.20
2023-01-18T13:29:36.806Z,10.27
2023-01-18T13:32:03.852Z,11.13
2023-01-18T13:34:47.319Z,10.43
2023-01-18T13:37:42.736Z,9.80
2023-01-18T13:40:37.499Z,10.87
2023-01-18T13:43:06.023Z,9.90
2023-01-18T13:45:52.909Z,9.73
2023-01-18T13:48:41.382Z,9.73
2023-01-18T13:51:11.812Z,9.43
2023-01-18T13:53:49.785Z,9.87
2023-01-18T13:56:31.410Z,9.33
2023-01-18T13:59:04.422Z,8.90
2023-01-18T14:01:36.533Z,9.30
2023-01-18T14:04:21.881Z,9.37
2023-01-18T14:06:49.602Z,7.53
2023-01-18T14:09:18.411Z,7.40
2023-01-18T14:11:54.295Z,6.93
2023-01-18T14:14:20.887Z,6.17
2023-01-18T14:17:23.680Z,6.80
2023-01-18T14:19:59.984Z,6.60
2023-01-18T14:22:33.331Z,5.63
2023-01-18T14:25:28.508Z,6.10
2023-01-18T14:28:07.912Z,7.03
2023-01-18T14:30:37.457Z,6.10
2023-01-18T14:33:15.917Z,6.43
2023-01-18T14:36:00.804Z,6.83
2023-01-18T14:38:29.181Z,6.20
2023-01-18T14:40:59.535Z,7.00
2023-01-18T14:43:41.086Z,6.87
2023-01-18T14:46:21.352Z,7.10
2023-01-18T14:48:57.059Z,6.90
2023-01-18T14:51:26.467Z,8.37
2023-01-18T14:53:57.786Z,8.23
2023-01-18T14:56:30.189Z,7.60
2023-01-18T14:58:59.695Z,7.87
2023-01-18T15:01:38.877Z,7.13
2023-01-18T15:04:18.304Z,7.60
2023-01-18T15:06:55.191Z,8.33
2023-01-18T15:09:23.296Z,8.43
2023-01-18T15:11:52.316Z,8.60
2023-01-18T15:14:29.067Z,8.53
2023-01-18T15:16:58.620Z,8.43
2023-01-18T15:19:41.838Z,7.70
2023-01-18T15:22:13.153Z,8.83
2023-01-18T15:24:41.657Z,8.37
2023-01-18T15:27:18.904Z,8.27
2023-01-18T15:29:53.507Z,9.00
2023-01-18T15:32:22.425Z,8.70
2023-01-18T15:34:51.359Z,8.50
2023-01-18T15:37:30.341Z,8.97
2023-01-18T15:39:57.667Z,8.67
2023-01-18T15:42:39.369Z,9.07
2023-01-18T15:45:21.691Z,8.53
2023-01-18T15:47:52.040Z,8.97
2023-01-18T15:50:20.235Z,9.50
2023-01-18T15:52:53.803Z,9.20
2023-01-18T15:55:30.245Z,8.80
2023-01-18T15:58:03.128Z,9.80
2023-01-18T16:00:42.452Z,9.37
2023-01-18T16:03:36.943Z,9.40
2023-01-18T16:06:11.034Z,9.23
2023-01-18T16:08:59.523Z,9.53
2023-01-18T16:11:41.246Z,10.07
2023-01-18T16:14:38.212Z,8.90
2023-01-18T16:17:14.345Z,9.03
2023-01-18T16:19:49.779Z,9.20
2023-01-18T16:22:29.631Z,8.97
2023-01-18T16:25:18.255Z,9.50
2023-01-18T16:27:57.141Z,9.23
2023-01-18T16:30:39.328Z,9.77
2023-01-18T16:33:13.237Z,9.37
2023-01-18T16:35:41.767Z,10.23
2023-01-18T16:38:12.901Z,9.93
2023-01-18T16:40:42.904Z,9.50
2023-01-18T16:43:20.034Z,10.07
2023-01-18T16:45:49.272Z,9.80
2023-01-18T16:48:18.702Z,9.87
2023-01-18T16:50:45.989Z,9.30
2023-01-18T16:53:13.469Z,8.90
2023-01-18T16:55:40.695Z,8.87
2023-01-18T16:58:07.381Z,9.33
2023-01-18T17:00:41.888Z,9.00
2023-01-18T17:03:08.678Z,9.10
2023-01-18T17:05:35.350Z,10.03
2023-01-18T17:08:02.325Z,10.23
2023-01-18T17:10:35.115Z,9.60
2023-01-18T17:13:02.719Z,9.70
2023-01-18T17:18:25.560Z,10.07
2023-01-18T17:20:53.394Z,10.13
2023-01-18T17:23:20.739Z,11.13
2023-01-18T17:25:47.385Z,10.53
2023-01-18T17:28:15.555Z,10.40
2023-01-18T17:30:49.397Z,10.80
2023-01-18T17:33:31.566Z,10.40
2023-01-18T17:35:58.428Z,11.00
2023-01-18T17:38:28.828Z,10.30
2023-01-18T17:40:57.666Z,9.80
2023-01-18T17:43:39.583Z,9.93
2023-01-18T17:46:06.849Z,10.03
2023-01-18T17:48:33.762Z,10.93
2023-01-18T17:51:00.518Z,11.53
2023-01-18T17:53:27.286Z,10.67
2023-01-18T17:55:53.880Z,10.83
2023-01-18T17:58:20.519Z,10.57
2023-01-18T18:00:47.183Z,11.60
2023-01-18T18:03:13.942Z,11.13
2023-01-18T18:05:40.575Z,11.30
2023-01-18T18:08:07.710Z,10.47
2023-01-18T18:10:34.333Z,11.40
2023-01-18T18:13:01.385Z,11.17
2023-01-18T18:15:28.246Z,10.73
2023-01-18T18:17:54.911Z,10.57
2023-01-18T18:20:22.728Z,12.50
2023-01-18T18:22:49.691Z,10.57
2023-01-18T18:25:16.409Z,10.67
2023-01-18T18:27:46.470Z,11.77
2023-01-18T18:30:14.370Z,10.80
2023-01-18T18:32:40.962Z,10.70
2023-01-18T18:35:23.165Z,11.10
2023-01-18T18:37:51.220Z,10.97
2023-01-18T18:40:18.774Z,11.60
2023-01-18T18:42:56.382Z,12.00
2023-01-18T18:45:27.950Z,10.00
2023-01-18T18:47:54.589Z,11.23
2023-01-18T18:50:21.254Z,10.73
2023-01-18T18:52:50.694Z,10.30
2023-01-18T18:55:17.497Z,10.30
2023-01-18T18:57:44.208Z,10.10
2023-01-18T19:00:11.503Z,10.10
2023-01-18T19:02:38.184Z,11.40
2023-01-18T19:05:05.952Z,10.37
2023-01-18T19:07:34.737Z,10.10
2023-01-18T19:10:01.481Z,10.37
2023-01-18T19:12:28.099Z,9.40
2023-01-18T19:14:54.725Z,10.87
2023-01-18T19:17:30.281Z,10.47
2023-01-18T19:20:10.044Z,10.50
2023-01-18T19:22:40.033Z,12.40
2023-01-18T19:25:07.317Z,12.07
2023-01-18T19:27:34.175Z,10.67
2023-01-18T19:30:03.170Z,10.50
2023-01-18T19:32:29.785Z,9.97
2023-01-18T19:34:56.357Z,10.47
2023-01-18T19:37:22.997Z,10.70
2023-01-18T19:39:49.912Z,12.90
2023-01-18T19:42:16.518Z,10.93
2023-01-18T19:44:43.342Z,9.97
2023-01-18T19:47:09.984Z,11.77
2023-01-18T19:49:36.630Z,10.97
2023-01-18T19:52:03.315Z,11.43
2023-01-18T19:54:29.892Z,10.30
2023-01-18T19:56:56.476Z,13.13
2023-01-18T19:59:23.100Z,11.10
2023-01-18T20:01:51.609Z,10.70
2023-01-18T20:04:18.373Z,11.20
2023-01-18T20:06:46.157Z,10.37
2023-01-18T20:09:19.847Z,10.17
2023-01-18T20:11:48.651Z,9.93
2023-01-18T20:14:15.536Z,10.43
2023-01-18T20:16:43.902Z,10.43
2023-01-18T20:19:13.202Z,9.97
2023-01-18T20:21:39.804Z,9.43
2023-01-18T20:24:06.739Z,10.23
2023-01-18T20:26:37.293Z,10.37
2023-01-18T20:29:08.360Z,10.20
2023-01-18T20:31:36.934Z,10.90
2023-01-18T20:34:04.616Z,10.63
2023-01-18T20:36:31.482Z,10.87
2023-01-18T20:38:58.470Z,10.17
2023-01-18T20:41:25.062Z,10.33
2023-01-18T20:43:52.024Z,9.93
2023-01-18T20:46:18.640Z,9.87
2023-01-18T20:48:45.273Z,10.00
2023-01-18T20:51:12.016Z,9.67
2023-01-18T20:53:38.649Z,10.30
2023-01-18T20:56:11.952Z,11.07
2023-01-18T20:58:50.208Z,9.00
2023-01-18T21:01:17.241Z,9.17
2023-01-18T21:03:53.094Z,10.40
2023-01-18T21:06:19.907Z,8.97
2023-01-18T21:08:46.594Z,9.67
2023-01-18T21:11:14.964Z,9.63
2023-01-18T21:13:41.612Z,9.63
2023-01-18T21:16:08.379Z,10.20
2023-01-18T21:18:37.496Z,11.07
2023-01-18T21:21:04.721Z,10.37
2023-01-18T21:23:39.351Z,9.53
2023-01-18T21:26:08.356Z,9.50
2023-01-18T21:28:35.126Z,9.90
2023-01-18T21:31:02.571Z,10.03
2023-01-18T21:33:29.550Z,10.30
2023-01-18T21:36:01.895Z,9.07
2023-01-18T21:38:29.523Z,9.03
2023-01-18T21:40:56.216Z,9.70
2023-01-18T21:43:41.427Z,9.17
2023-01-18T21:46:10.923Z,8.23
2023-01-18T21:48:37.623Z,9.40
2023-01-18T21:51:23.956Z,9.30
2023-01-18T21:54:09.252Z,9.20
2023-01-18T21:56:38.709Z,8.87
2023-01-18T21:59:05.303Z,10.13
2023-01-18T22:01:34.858Z,9.23
2023-01-18T22:04:22.589Z,8.70
2023-01-18T22:06:49.758Z,8.80
2023-01-18T22:09:16.839Z,9.73
2023-01-18T22:11:44.005Z,9.53
2023-01-18T22:14:10.872Z,8.63
2023-01-18T22:16:37.998Z,9.37
2023-01-18T22:19:05.013Z,9.40
2023-01-18T22:21:32.451Z,9.53
2023-01-18T22:23:59.719Z,9.20
2023-01-18T22:26:28.878Z,9.57
2023-01-18T22:28:56.397Z,8.63
2023-01-18T22:31:23.152Z,9.57
2023-01-18T22:33:49.877Z,8.70
2023-01-18T22:36:16.786Z,9.47
2023-01-18T22:38:43.869Z,9.87
2023-01-18T22:41:12.896Z,9.73
2023-01-18T22:43:40.262Z,9.17
2023-01-18T22:46:08.564Z,9.10
2023-01-18T22:48:36.707Z,9.63
2023-01-18T22:51:05.292Z,9.73
2023-01-18T22:53:33.308Z,9.50
2023-01-18T22:56:05.162Z,9.50
2023-01-18T22:58:32.066Z,9.43
2023-01-18T23:00:58.999Z,10.03
2023-01-18T23:03:25.800Z,10.30
2023-01-18T23:05:57.485Z,9.63
2023-01-18T23:08:44.435Z,10.17
2023-01-18T23:11:25.620Z,10.13
2023-01-18T23:14:14.008Z,10.40
2023-01-18T23:16:59.465Z,9.70
2023-01-18T23:19:28.212Z,10.23
2023-01-18T23:21:56.131Z,10.50
2023-01-18T23:24:23.217Z,10.53
2023-01-18T23:26:50.687Z,10.00
2023-01-18T23:29:17.965Z,9.17
2023-01-18T23:31:44.563Z,10.17
2023-01-18T23:34:11.213Z,10.37
2023-01-18T23:36:37.848Z,10.17
2023-01-18T23:39:23.020Z,10.07
2023-01-18T23:42:08.476Z,10.53
2023-01-18T23:44:53.914Z,9.63
2023-01-18T23:47:39.492Z,10.77
2023-01-18T23:50:28.388Z,10.27
2023-01-18T23:53:13.791Z,9.50
2023-01-18T23:55:41.364Z,9.27
2023-01-18T23:58:08.064Z,10.40
